^^
Meteo Knjazevac Station Historical Data
 
Daily Summary for August 05, 2020 Units:  Metric    English   Both
Daily Weekly Monthly Yearly Custom
  Current: High: Low: Average:
Temperature: 16.5 °C 20.5 °C 16.2 °C 18.1 °C
Dew Point: 15.7 °C 17.7 °C 15.3 °C 16.6 °C
Humidity: 95% 95% 84% 91%
Wind Speed: 0km/h 4.8km/h 0km/h 0.5km/h
Wind Gust: 1.6km/h 9.7km/h - -
WindCalm - - SW
Pressure: 1011.4 hPa 1011.7 hPa 1009.7 hPa -
Precipitation: 0 mm      
Historical Graphs
 
 
Tabular Data for August 05, 2020
Time Temperature Dew Point Pressure Wind Wind Speed Wind Gust Humidity Rainfall Rate (Hourly) solar Conditions
00:00 20.5 °C 17.7 °C 1009.7 hPa Calm   3.2 km/h 84% 0 mm 0 W/m2
00:10 20.3 °C 17.7 °C 1010 hPa Calm   3.2 km/h 85% 0 mm 0 W/m2
00:20 20.1 °C 17.5 °C 1009.7 hPa Calm   3.2 km/h 85% 0 mm 0 W/m2
00:30 19.9 °C 17.5 °C 1009.7 hPa Calm   1.6 km/h 86% 0 mm 0 W/m2
00:40 19.7 °C 17.3 °C 1010 hPa Calm   3.2 km/h 86% 0 mm 0 W/m2
00:50 19.6 °C 17.4 °C 1010 hPa NW 1.6 km/h 4.8 km/h 87% 0 mm 0 W/m2
01:00 19.6 °C 17.6 °C 1010 hPa Calm   4.8 km/h 88% 0 mm 0 W/m2
01:10 19.4 °C 17.3 °C 1010 hPa Calm   3.2 km/h 88% 0 mm 0 W/m2
01:20 19.3 °C 17.3 °C 1010 hPa Calm   3.2 km/h 88% 0 mm 0 W/m2
01:30 19.1 °C 17.1 °C 1010 hPa Calm   3.2 km/h 88% 0 mm 0 W/m2
01:40 19 °C 17.2 °C 1010 hPa Calm   3.2 km/h 89% 0 mm 0 W/m2
01:50 18.9 °C 17.3 °C 1010 hPa NNE 4.8 km/h 8 km/h 90% 0 mm 0 W/m2
02:00 19 °C 17.3 °C 1010 hPa NE 3.2 km/h 8 km/h 90% 0 mm 0 W/m2
02:10 19 °C 17.3 °C 1010 hPa Calm   9.7 km/h 90% 0 mm 0 W/m2
02:20 18.8 °C 17.1 °C 1010.4 hPa Calm   3.2 km/h 90% 0 mm 0 W/m2
02:30 18.7 °C 17 °C 1010.4 hPa Calm   3.2 km/h 90% 0 mm 0 W/m2
02:40 18.6 °C 17.1 °C 1010.4 hPa NE 1.6 km/h 4.8 km/h 91% 0 mm 0 W/m2
02:50 18.5 °C 17 °C 1010.4 hPa Calm   4.8 km/h 91% 0 mm 0 W/m2
03:00 18.3 °C 16.8 °C 1010.4 hPa Calm   3.2 km/h 91% 0 mm 0 W/m2
03:10 18.1 °C 16.7 °C 1010.4 hPa Calm   3.2 km/h 91% 0 mm 0 W/m2
03:20 18.1 °C 16.6 °C 1010.4 hPa Calm   3.2 km/h 91% 0 mm 0 W/m2
03:30 18 °C 16.5 °C 1010.4 hPa Calm   3.2 km/h 91% 0 mm 0 W/m2
03:40 17.8 °C 16.7 °C 1010.4 hPa WNW 1.6 km/h 3.2 km/h 93% 0 mm 0 W/m2
03:50 17.7 °C 16.6 °C 1010.4 hPa West 1.6 km/h 6.4 km/h 93% 0 mm 0 W/m2
04:00 17.7 °C 16.7 °C 1010.4 hPa NNW 1.6 km/h 8 km/h 94% 0 mm 0 W/m2
04:10 17.7 °C 16.7 °C 1010.7 hPa Calm   3.2 km/h 94% 0 mm 0 W/m2
04:20 17.5 °C 16.3 °C 1010.7 hPa Calm     93% 0 mm 0 W/m2
04:30 17.3 °C 16.2 °C 1010.7 hPa Calm   3.2 km/h 93% 0 mm 0 W/m2
04:40 17.2 °C 16.1 °C 1010.7 hPa NNW 1.6 km/h 3.2 km/h 93% 0 mm 0 W/m2
04:50 17.1 °C 15.9 °C 1010.7 hPa Calm   3.2 km/h 93% 0 mm 0 W/m2
05:00 16.9 °C 15.9 °C 1011.1 hPa Calm   3.2 km/h 94% 0 mm 0 W/m2
05:10 16.9 °C 15.9 °C 1011.1 hPa Calm   4.8 km/h 94% 0 mm 0 W/m2
05:20 16.8 °C 15.8 °C 1011.1 hPa West 1.6 km/h 3.2 km/h 94% 0 mm 0 W/m2
05:30 16.6 °C 15.6 °C 1011.4 hPa Calm   3.2 km/h 94% 0 mm 6 W/m2
05:40 16.5 °C 15.6 °C 1011.4 hPa Calm   3.2 km/h 94% 0 mm 13 W/m2
05:50 16.4 °C 15.4 °C 1011.4 hPa Calm   3.2 km/h 94% 0 mm 22 W/m2
06:00 16.3 °C 15.3 °C 1011.7 hPa SW 1.6 km/h 3.2 km/h 94% 0 mm 33 W/m2
06:10 16.2 °C 15.4 °C 1011.4 hPa Calm   3.2 km/h 95% 0 mm 50 W/m2
06:20 16.3 °C 15.5 °C 1011.4 hPa Calm   3.2 km/h 95% 0 mm 68 W/m2
06:30 16.4 °C 15.6 °C 1011.4 hPa Calm   3.2 km/h 95% 0 mm 91 W/m2
06:40 16.4 °C 15.6 °C 1011.4 hPa Calm   3.2 km/h 95% 0 mm 111 W/m2
06:50 16.5 °C 15.7 °C 1011.4 hPa Calm   1.6 km/h 95% 0 mm 143 W/m2
Knjazevac, Serbia
Compliments of Weather Underground - 2 mb